createdAt,value
2018-05-29T00:00:55.608Z,22.28
2018-05-29T00:01:55.521Z,22.19
2018-05-29T00:02:55.510Z,22.15
2018-05-29T00:03:55.501Z,22.21
2018-05-29T00:04:55.488Z,22.19
2018-05-29T00:05:55.488Z,22.12
2018-05-29T00:06:55.455Z,22.12
2018-05-29T00:07:55.453Z,22.16
2018-05-29T00:08:55.435Z,22.06
2018-05-29T00:09:55.430Z,22.03
2018-05-29T00:10:55.411Z,22.06
2018-05-29T00:11:55.408Z,22.12
2018-05-29T00:12:55.384Z,22.11
2018-05-29T00:13:55.377Z,22.00
2018-05-29T00:14:55.369Z,22.16
2018-05-29T00:15:55.344Z,21.96
2018-05-29T00:16:55.328Z,22.07
2018-05-29T00:17:55.345Z,22.06
2018-05-29T00:18:55.304Z,22.07
2018-05-29T00:19:55.320Z,22.04
2018-05-29T00:20:55.279Z,22.06
2018-05-29T00:21:55.274Z,22.04
2018-05-29T00:22:55.278Z,21.98
2018-05-29T00:23:55.253Z,21.93
2018-05-29T00:24:55.229Z,22.00
2018-05-29T00:25:55.245Z,21.94
2018-05-29T00:26:55.247Z,21.97
2018-05-29T00:27:55.234Z,21.84
2018-05-29T00:28:55.205Z,21.84
2018-05-29T00:29:55.178Z,21.88
2018-05-29T00:30:55.150Z,21.93
2018-05-29T00:31:55.148Z,21.84
2018-05-29T00:32:55.130Z,21.84
2018-05-29T00:33:55.132Z,21.88
2018-05-29T00:34:55.112Z,21.85
2018-05-29T00:35:55.090Z,21.81
2018-05-29T00:36:55.115Z,21.88
2018-05-29T00:37:55.088Z,21.84
2018-05-29T00:38:55.049Z,21.85
2018-05-29T00:39:55.051Z,21.80
2018-05-29T00:40:55.032Z,21.82
2018-05-29T00:41:55.017Z,21.73
2018-05-29T00:42:55.013Z,21.73
2018-05-29T00:43:54.999Z,21.67
2018-05-29T00:44:54.971Z,21.73
2018-05-29T00:45:54.972Z,21.69
2018-05-29T00:46:54.961Z,21.60
2018-05-29T00:47:54.935Z,21.65
2018-05-29T00:48:54.930Z,21.59
2018-05-29T00:49:54.916Z,21.65
2018-05-29T00:50:54.904Z,21.62
2018-05-29T00:51:54.914Z,21.69
2018-05-29T00:52:54.885Z,21.71
2018-05-29T00:53:54.858Z,21.66
2018-05-29T00:54:54.847Z,21.67
2018-05-29T00:55:54.839Z,21.65
2018-05-29T00:56:54.828Z,21.65
2018-05-29T00:57:54.839Z,21.67
2018-05-29T00:58:54.828Z,21.65
2018-05-29T00:59:54.798Z,21.56
2018-05-29T01:00:54.779Z,21.67
2018-05-29T01:01:54.754Z,21.69
2018-05-29T01:02:54.739Z,21.58
2018-05-29T01:03:54.729Z,21.63
2018-05-29T01:04:54.731Z,21.59
2018-05-29T01:05:57.443Z,21.59
2018-05-29T01:06:54.707Z,21.56
2018-05-29T01:07:54.701Z,21.58
2018-05-29T01:08:54.659Z,21.53
2018-05-29T01:09:54.671Z,21.51
2018-05-29T01:10:54.655Z,21.50
2018-05-29T01:11:54.635Z,21.50
2018-05-29T01:12:54.627Z,21.43
2018-05-29T01:13:54.603Z,21.45
2018-05-29T01:14:54.585Z,21.44
2018-05-29T01:15:54.591Z,21.37
2018-05-29T01:16:54.590Z,21.37
2018-05-29T01:17:54.548Z,21.34
2018-05-29T01:18:54.546Z,21.30
2018-05-29T01:19:54.524Z,21.34
2018-05-29T01:20:54.504Z,21.35
2018-05-29T01:21:54.511Z,21.32
2018-05-29T01:22:54.491Z,21.25
2018-05-29T01:23:54.481Z,21.29
2018-05-29T01:24:54.470Z,21.23
2018-05-29T01:25:54.437Z,21.26
2018-05-29T01:26:54.423Z,21.26
2018-05-29T01:27:54.411Z,21.26
2018-05-29T01:28:54.423Z,21.16
2018-05-29T01:29:54.389Z,21.22
2018-05-29T01:30:54.367Z,21.22
2018-05-29T01:31:54.381Z,21.20
2018-05-29T01:32:54.384Z,21.22
2018-05-29T01:33:54.353Z,21.18
2018-05-29T01:34:54.338Z,21.23
2018-05-29T01:35:54.305Z,21.13
2018-05-29T01:36:54.310Z,21.13
2018-05-29T01:37:54.283Z,21.18
2018-05-29T01:38:54.278Z,21.08
2018-05-29T01:39:54.251Z,21.13
2018-05-29T01:40:54.238Z,21.16
2018-05-29T01:41:54.226Z,21.11
2018-05-29T01:42:54.237Z,21.10
2018-05-29T01:43:54.220Z,21.03
2018-05-29T01:44:54.217Z,21.03
2018-05-29T01:45:54.217Z,21.13
2018-05-29T01:46:54.183Z,21.07
2018-05-29T01:47:54.154Z,21.11
2018-05-29T01:48:54.136Z,21.04
2018-05-29T01:49:54.152Z,21.08
2018-05-29T01:50:54.104Z,21.03
2018-05-29T01:51:54.086Z,21.05
2018-05-29T01:52:54.079Z,21.00
2018-05-29T01:53:54.060Z,21.03
2018-05-29T01:54:54.052Z,21.08
2018-05-29T01:55:54.035Z,21.08
2018-05-29T01:56:54.024Z,20.95
2018-05-29T01:57:54.009Z,21.10
2018-05-29T01:58:54.022Z,20.93
2018-05-29T01:59:53.995Z,20.95
2018-05-29T02:00:53.990Z,21.07
2018-05-29T02:01:53.957Z,20.98
2018-05-29T02:02:53.948Z,21.03
2018-05-29T02:03:53.935Z,20.90
2018-05-29T02:04:53.921Z,20.98
2018-05-29T02:05:53.926Z,20.97
2018-05-29T02:06:53.912Z,20.86
2018-05-29T02:07:53.900Z,20.93
2018-05-29T02:08:53.869Z,21.01
2018-05-29T02:09:53.872Z,20.93
2018-05-29T02:10:53.861Z,20.89
2018-05-29T02:11:53.827Z,20.85
2018-05-29T02:12:53.804Z,20.88
2018-05-29T02:13:53.792Z,20.93
2018-05-29T02:14:53.780Z,20.86
2018-05-29T02:15:53.776Z,20.85
2018-05-29T02:16:53.749Z,20.88
2018-05-29T02:17:53.729Z,20.89
2018-05-29T02:18:53.720Z,20.82
2018-05-29T02:19:53.717Z,20.80
2018-05-29T02:20:53.718Z,20.75
2018-05-29T02:21:53.684Z,20.80
2018-05-29T02:22:53.686Z,20.79
2018-05-29T02:23:53.670Z,20.75
2018-05-29T02:24:53.646Z,20.79
2018-05-29T02:25:53.637Z,20.79
2018-05-29T02:26:53.610Z,20.73
2018-05-29T02:27:53.609Z,20.75
2018-05-29T02:28:53.586Z,20.82
2018-05-29T02:29:53.569Z,20.71
2018-05-29T02:30:53.561Z,20.73
2018-05-29T02:31:53.541Z,20.71
2018-05-29T02:32:53.541Z,20.68
2018-05-29T02:33:53.527Z,20.71
2018-05-29T02:34:53.508Z,20.67
2018-05-29T02:35:53.494Z,20.65
2018-05-29T02:36:53.472Z,20.63
2018-05-29T02:37:53.463Z,20.67
2018-05-29T02:38:53.452Z,20.67
2018-05-29T02:39:53.435Z,20.63
2018-05-29T02:40:53.428Z,20.63
2018-05-29T02:41:53.410Z,20.74
2018-05-29T02:42:53.385Z,20.64
2018-05-29T02:43:53.385Z,20.64
2018-05-29T02:44:53.361Z,20.60
2018-05-29T02:45:53.354Z,20.53
2018-05-29T02:46:53.344Z,20.61
2018-05-29T02:47:53.324Z,20.55
2018-05-29T02:48:53.308Z,20.50
2018-05-29T02:49:53.295Z,20.63
2018-05-29T02:50:53.277Z,20.46
2018-05-29T02:51:53.284Z,20.58
2018-05-29T02:52:53.252Z,20.60
2018-05-29T02:53:53.261Z,20.49
2018-05-29T02:54:53.262Z,20.53
2018-05-29T02:55:53.226Z,20.53
2018-05-29T02:56:53.208Z,20.58
2018-05-29T02:57:53.193Z,20.58
2018-05-29T02:58:53.174Z,20.55
2018-05-29T02:59:53.152Z,20.56
2018-05-29T03:00:53.142Z,20.53
2018-05-29T03:01:53.127Z,20.49
2018-05-29T03:02:53.115Z,20.36
2018-05-29T03:03:53.104Z,20.58
2018-05-29T03:04:53.083Z,20.42
2018-05-29T03:05:53.077Z,20.41
2018-05-29T03:06:53.090Z,20.44
2018-05-29T03:07:53.052Z,20.37
2018-05-29T03:08:53.036Z,20.46
2018-05-29T03:09:53.026Z,20.41
2018-05-29T03:10:52.999Z,20.48
2018-05-29T03:11:52.980Z,20.42
2018-05-29T03:12:52.976Z,20.44
2018-05-29T03:13:52.970Z,20.36
2018-05-29T03:14:52.948Z,20.33
2018-05-29T03:15:52.953Z,20.50
2018-05-29T03:16:52.912Z,20.49
2018-05-29T03:17:52.915Z,20.34
2018-05-29T03:18:52.895Z,20.41
2018-05-29T03:19:52.875Z,20.33
2018-05-29T03:20:52.907Z,20.36
2018-05-29T03:21:52.844Z,20.46
2018-05-29T03:22:52.845Z,20.33
2018-05-29T03:23:52.817Z,20.39
2018-05-29T03:24:52.804Z,20.32
2018-05-29T03:25:52.789Z,20.37
2018-05-29T03:26:52.776Z,20.33
2018-05-29T03:27:52.755Z,20.33
2018-05-29T03:28:52.746Z,20.33
2018-05-29T03:29:52.734Z,20.27
2018-05-29T03:30:52.723Z,20.27
2018-05-29T03:31:52.730Z,20.30
2018-05-29T03:32:52.685Z,20.22
2018-05-29T03:33:52.674Z,20.29
2018-05-29T03:34:52.671Z,20.32
2018-05-29T03:35:52.650Z,20.29
2018-05-29T03:36:52.632Z,20.29
2018-05-29T03:37:52.641Z,20.29
2018-05-29T03:38:52.643Z,20.22
2018-05-29T03:39:52.593Z,20.19
2018-05-29T03:40:52.580Z,20.18
2018-05-29T03:41:52.573Z,20.22
2018-05-29T03:42:52.553Z,20.30
2018-05-29T03:43:52.539Z,20.25
2018-05-29T03:44:52.545Z,20.29
2018-05-29T03:45:52.507Z,20.30
2018-05-29T03:46:52.493Z,20.25
2018-05-29T03:47:52.477Z,20.19
2018-05-29T03:48:52.464Z,20.22
2018-05-29T03:49:52.486Z,20.25
2018-05-29T03:50:52.431Z,20.30
2018-05-29T03:51:52.420Z,20.18
2018-05-29T03:52:52.407Z,20.26
2018-05-29T03:53:52.438Z,20.30
2018-05-29T03:54:52.375Z,20.19
2018-05-29T03:55:52.362Z,20.26
2018-05-29T03:56:52.367Z,20.22
2018-05-29T03:57:52.331Z,20.32
2018-05-29T03:58:52.347Z,20.25
2018-05-29T03:59:52.309Z,20.29
2018-05-29T04:00:52.284Z,20.22
2018-05-29T04:01:52.279Z,20.29
2018-05-29T04:02:52.268Z,20.32
2018-05-29T04:03:52.258Z,20.22
2018-05-29T04:04:52.232Z,20.26
2018-05-29T04:05:52.214Z,20.27
2018-05-29T04:06:52.208Z,20.32
2018-05-29T04:07:52.201Z,20.26
2018-05-29T04:08:52.181Z,20.27
2018-05-29T04:09:52.168Z,20.29
2018-05-29T04:10:52.147Z,20.29
2018-05-29T04:11:52.141Z,20.27
2018-05-29T04:12:52.119Z,20.26
2018-05-29T04:13:52.106Z,20.27
2018-05-29T04:14:52.092Z,20.30
2018-05-29T04:15:52.136Z,20.27
2018-05-29T04:16:52.067Z,20.29
2018-05-29T04:17:52.052Z,20.26
2018-05-29T04:18:52.029Z,20.25
2018-05-29T04:19:52.018Z,20.41
2018-05-29T04:20:52.017Z,20.27
2018-05-29T04:21:52.005Z,20.33
2018-05-29T04:22:51.985Z,20.33
2018-05-29T04:23:51.970Z,20.36
2018-05-29T04:24:51.944Z,20.36
2018-05-29T04:25:51.940Z,20.34
2018-05-29T04:26:51.921Z,20.48
2018-05-29T04:27:51.907Z,20.50
2018-05-29T04:28:51.908Z,20.41
2018-05-29T04:29:51.892Z,20.44
2018-05-29T04:30:51.862Z,20.46
2018-05-29T04:31:51.856Z,20.37
2018-05-29T04:32:51.841Z,20.37
2018-05-29T04:33:51.820Z,20.44
2018-05-29T04:34:51.817Z,20.49
2018-05-29T04:35:51.800Z,20.44
2018-05-29T04:36:51.799Z,20.55
2018-05-29T04:37:51.766Z,20.64
2018-05-29T04:38:51.757Z,20.61
2018-05-29T04:39:51.743Z,20.58
2018-05-29T04:40:51.726Z,20.52
2018-05-29T04:41:51.712Z,20.65
2018-05-29T04:42:51.699Z,20.65
2018-05-29T04:43:51.685Z,20.67
2018-05-29T04:44:51.681Z,20.71
2018-05-29T04:45:51.655Z,20.58
2018-05-29T04:46:51.649Z,20.70
2018-05-29T04:47:51.639Z,20.67
2018-05-29T04:48:51.638Z,20.67
2018-05-29T04:49:51.597Z,20.65
2018-05-29T04:50:51.590Z,20.70
2018-05-29T04:51:51.588Z,20.75
2018-05-29T04:52:51.555Z,20.75
2018-05-29T04:53:51.557Z,20.79
2018-05-29T04:54:51.533Z,20.75
2018-05-29T04:55:51.523Z,20.88
2018-05-29T04:56:51.507Z,20.85
2018-05-29T04:57:51.495Z,20.82
2018-05-29T04:58:51.481Z,20.89
2018-05-29T04:59:51.464Z,20.93
2018-05-29T05:00:51.451Z,20.92
2018-05-29T05:01:51.437Z,20.89
2018-05-29T05:02:51.445Z,20.92
2018-05-29T05:03:51.409Z,20.95
2018-05-29T05:04:51.388Z,20.92
2018-05-29T05:05:51.379Z,20.98
2018-05-29T05:06:51.370Z,20.90
2018-05-29T05:07:51.353Z,20.95
2018-05-29T05:08:51.354Z,20.89
2018-05-29T05:09:51.333Z,20.97
2018-05-29T05:10:51.311Z,20.93
2018-05-29T05:11:51.299Z,21.01
2018-05-29T05:12:51.284Z,20.92
2018-05-29T05:13:51.279Z,20.98
2018-05-29T05:14:51.260Z,20.98
2018-05-29T05:15:51.246Z,20.95
2018-05-29T05:16:51.233Z,20.92
2018-05-29T05:17:51.218Z,21.01
2018-05-29T05:18:51.203Z,21.00
2018-05-29T05:19:51.194Z,20.97
2018-05-29T05:20:51.187Z,20.89
2018-05-29T05:21:51.164Z,20.98
2018-05-29T05:22:51.153Z,21.04
2018-05-29T05:23:51.139Z,21.01
2018-05-29T05:24:51.127Z,21.05
2018-05-29T05:25:51.113Z,21.11
2018-05-29T05:26:51.101Z,21.13
2018-05-29T05:27:51.084Z,21.03
2018-05-29T05:28:51.075Z,21.19
2018-05-29T05:29:51.059Z,21.18
2018-05-29T05:30:51.043Z,21.20
2018-05-29T05:31:51.030Z,21.16
2018-05-29T05:32:51.019Z,21.13
2018-05-29T05:33:51.005Z,21.20
2018-05-29T05:34:50.990Z,21.28
2018-05-29T05:35:50.976Z,21.23
2018-05-29T05:36:50.964Z,21.23
2018-05-29T05:37:50.960Z,21.29
2018-05-29T05:38:50.939Z,21.29
2018-05-29T05:39:50.923Z,21.35
2018-05-29T05:40:50.913Z,21.35
2018-05-29T05:41:50.899Z,21.34
2018-05-29T05:42:51.010Z,21.32
2018-05-29T05:43:50.874Z,21.44
2018-05-29T05:44:50.858Z,21.48
2018-05-29T05:45:50.847Z,21.51
2018-05-29T05:46:50.834Z,21.69
2018-05-29T05:47:50.821Z,21.65
2018-05-29T05:48:50.809Z,21.66
2018-05-29T05:49:50.795Z,21.73
2018-05-29T05:50:50.787Z,21.88
2018-05-29T05:51:50.773Z,21.85
2018-05-29T05:52:50.775Z,21.84
2018-05-29T05:53:50.747Z,21.81
2018-05-29T05:54:50.731Z,21.82
2018-05-29T05:55:50.719Z,21.81
2018-05-29T05:56:50.706Z,21.81
2018-05-29T05:57:50.698Z,21.88
2018-05-29T05:58:50.681Z,21.77
2018-05-29T05:59:50.668Z,21.85
2018-05-29T06:00:50.659Z,21.82
2018-05-29T06:01:50.641Z,21.77
2018-05-29T06:02:50.636Z,21.77
2018-05-29T06:03:50.621Z,21.80
2018-05-29T06:04:50.720Z,21.73
2018-05-29T06:05:50.589Z,21.85
2018-05-29T06:06:50.577Z,21.84
2018-05-29T06:07:50.578Z,21.88
2018-05-29T06:08:50.591Z,21.85
2018-05-29T06:09:50.688Z,21.82
2018-05-29T06:10:50.547Z,21.78
2018-05-29T06:11:50.590Z,21.74
2018-05-29T06:12:50.573Z,21.73
2018-05-29T06:13:50.500Z,21.74
2018-05-29T06:14:50.501Z,21.75
2018-05-29T06:15:50.473Z,21.74
2018-05-29T06:16:50.456Z,21.80
2018-05-29T06:17:50.445Z,21.96
2018-05-29T06:18:50.435Z,22.04
2018-05-29T06:19:50.444Z,22.18
2018-05-29T06:20:50.403Z,22.36
2018-05-29T06:21:50.395Z,22.62
2018-05-29T06:22:50.394Z,22.73
2018-05-29T06:23:50.364Z,22.95
2018-05-29T06:24:50.357Z,23.08
2018-05-29T06:25:50.352Z,23.23
2018-05-29T06:26:50.347Z,23.39
2018-05-29T06:27:50.336Z,23.66
2018-05-29T06:28:50.321Z,23.76
2018-05-29T06:29:50.308Z,23.86
2018-05-29T06:30:50.305Z,23.92
2018-05-29T06:31:50.299Z,24.07
2018-05-29T06:32:50.350Z,24.18
2018-05-29T06:33:50.277Z,24.15
2018-05-29T06:34:50.269Z,24.29
2018-05-29T06:35:50.259Z,24.43
2018-05-29T06:36:50.250Z,24.37
2018-05-29T06:37:50.241Z,24.38
2018-05-29T06:38:50.234Z,24.52
2018-05-29T06:39:50.233Z,24.47
2018-05-29T06:40:50.218Z,24.56
2018-05-29T06:41:50.211Z,24.60
2018-05-29T06:42:50.204Z,24.55
2018-05-29T06:43:50.196Z,24.59
2018-05-29T06:44:50.206Z,24.60
2018-05-29T06:45:50.230Z,24.63
2018-05-29T06:46:50.178Z,24.62
2018-05-29T06:47:50.176Z,24.81
2018-05-29T06:48:50.167Z,24.76
2018-05-29T06:49:50.162Z,24.86
2018-05-29T06:50:50.154Z,24.97
2018-05-29T06:51:50.147Z,25.01
2018-05-29T06:52:50.143Z,24.99
2018-05-29T06:53:50.139Z,25.03
2018-05-29T06:54:50.132Z,25.03
2018-05-29T06:55:50.127Z,25.14
2018-05-29T06:56:50.123Z,25.31
2018-05-29T06:57:50.122Z,25.31
2018-05-29T06:58:50.114Z,25.33
2018-05-29T06:59:50.112Z,25.31
2018-05-29T07:00:50.105Z,25.38
2018-05-29T07:01:50.106Z,25.48
2018-05-29T07:02:50.097Z,25.55
2018-05-29T07:03:50.131Z,25.83
2018-05-29T07:04:50.089Z,26.01
2018-05-29T07:05:50.092Z,26.12
2018-05-29T07:06:50.085Z,26.26
2018-05-29T07:07:50.081Z,26.30
2018-05-29T07:08:50.074Z,26.46
2018-05-29T07:09:50.079Z,26.57
2018-05-29T07:10:50.083Z,26.63
2018-05-29T07:11:50.070Z,26.78
2018-05-29T07:12:50.066Z,26.86
2018-05-29T07:13:50.065Z,26.80
2018-05-29T07:14:50.059Z,26.89
2018-05-29T07:15:50.063Z,26.93
2018-05-29T07:16:50.055Z,27.01
2018-05-29T07:17:50.051Z,26.97
2018-05-29T07:18:50.049Z,27.15
2018-05-29T07:19:50.059Z,27.16
2018-05-29T07:20:50.041Z,27.20
2018-05-29T07:21:50.039Z,27.27
2018-05-29T07:22:50.034Z,27.26
2018-05-29T07:23:50.030Z,27.35
2018-05-29T07:24:50.028Z,27.42
2018-05-29T07:25:50.027Z,27.41
2018-05-29T07:26:50.019Z,27.41
2018-05-29T07:27:50.012Z,27.49
2018-05-29T07:28:50.015Z,27.52
2018-05-29T07:29:50.011Z,27.58
2018-05-29T07:30:50.002Z,27.69
2018-05-29T07:31:49.997Z,27.63
2018-05-29T07:32:49.991Z,27.60
2018-05-29T07:33:49.990Z,27.63
2018-05-29T07:34:49.987Z,27.63
2018-05-29T07:35:49.978Z,27.75
2018-05-29T07:36:49.968Z,27.88
2018-05-29T07:37:49.967Z,27.94
2018-05-29T07:38:49.982Z,27.97
2018-05-29T07:39:49.958Z,28.00
2018-05-29T07:40:49.959Z,28.12
2018-05-29T07:41:49.947Z,28.16
2018-05-29T07:42:49.934Z,28.10
2018-05-29T07:43:49.939Z,28.22
2018-05-29T07:44:49.922Z,28.20
2018-05-29T07:45:49.915Z,28.24
2018-05-29T07:46:49.912Z,28.06
2018-05-29T07:47:49.908Z,27.91
2018-05-29T07:48:49.906Z,27.82
2018-05-29T07:49:49.895Z,27.76
2018-05-29T07:50:49.900Z,27.85
2018-05-29T07:51:49.885Z,27.87
2018-05-29T07:52:49.873Z,27.87
2018-05-29T07:53:49.870Z,27.88
2018-05-29T07:54:49.863Z,28.03
2018-05-29T07:55:49.855Z,28.06
2018-05-29T07:56:49.921Z,28.22
2018-05-29T07:57:49.853Z,28.17
2018-05-29T07:58:49.848Z,28.16
2018-05-29T07:59:49.832Z,28.22
2018-05-29T08:00:49.823Z,28.32
2018-05-29T08:01:49.818Z,28.34
2018-05-29T08:02:49.809Z,28.34
2018-05-29T08:03:49.792Z,28.27
2018-05-29T08:04:49.804Z,28.17
2018-05-29T08:05:49.822Z,28.30
2018-05-29T08:07:50.051Z,28.42
2018-05-29T08:08:49.763Z,28.44
2018-05-29T08:09:49.764Z,28.44
2018-05-29T08:10:49.750Z,28.49
2018-05-29T08:11:49.755Z,28.61
2018-05-29T08:12:49.898Z,28.62
2018-05-29T08:13:49.739Z,28.64
2018-05-29T08:14:49.729Z,28.74
2018-05-29T08:15:49.721Z,28.68
2018-05-29T08:16:49.715Z,28.91
2018-05-29T08:17:49.710Z,28.90
2018-05-29T08:18:49.703Z,28.96
2018-05-29T08:19:49.690Z,28.94
2018-05-29T08:20:49.687Z,29.00
2018-05-29T08:21:49.684Z,29.07
2018-05-29T08:22:49.672Z,29.03
2018-05-29T08:23:49.678Z,28.81
2018-05-29T08:24:50.085Z,28.54
2018-05-29T08:25:51.094Z,28.43
2018-05-29T08:26:49.985Z,28.47
2018-05-29T08:27:49.638Z,28.53
2018-05-29T08:28:49.629Z,28.49
2018-05-29T08:29:49.619Z,28.64
2018-05-29T08:30:49.625Z,28.62
2018-05-29T08:31:49.625Z,28.62
2018-05-29T08:32:49.599Z,28.61
2018-05-29T08:33:49.598Z,28.65
2018-05-29T08:34:49.604Z,28.72
2018-05-29T08:35:49.609Z,28.77
2018-05-29T08:36:49.576Z,28.68
2018-05-29T08:37:49.573Z,28.62
2018-05-29T08:38:49.884Z,28.66
2018-05-29T08:39:49.569Z,28.79
2018-05-29T08:40:49.648Z,28.84
2018-05-29T08:41:49.545Z,28.87
2018-05-29T08:42:49.548Z,28.93
2018-05-29T08:43:49.552Z,28.94
2018-05-29T08:44:49.518Z,28.81
2018-05-29T08:45:49.516Z,28.61
2018-05-29T08:46:49.512Z,28.62
2018-05-29T08:47:49.500Z,28.57
2018-05-29T08:48:49.494Z,28.54
2018-05-29T08:49:49.490Z,28.64
2018-05-29T08:50:49.475Z,28.65
2018-05-29T08:51:49.509Z,28.87
2018-05-29T08:52:49.480Z,28.90
2018-05-29T08:53:49.459Z,29.03
2018-05-29T08:54:49.454Z,29.19
2018-05-29T08:55:49.438Z,29.21
2018-05-29T08:56:49.474Z,29.21
2018-05-29T08:57:49.439Z,29.24
2018-05-29T08:58:49.422Z,29.28
2018-05-29T08:59:49.426Z,29.34
2018-05-29T09:00:49.418Z,29.29
2018-05-29T09:01:49.412Z,29.39
2018-05-29T09:02:49.397Z,29.37
2018-05-29T09:03:49.405Z,29.50
2018-05-29T09:04:49.391Z,29.40
2018-05-29T09:05:49.650Z,29.59
2018-05-29T09:06:49.371Z,29.58
2018-05-29T09:07:49.440Z,29.54
2018-05-29T09:08:49.383Z,29.62
2018-05-29T09:09:49.369Z,29.63
2018-05-29T09:10:49.528Z,29.61
2018-05-29T09:11:49.429Z,29.54
2018-05-29T09:12:49.333Z,29.63
2018-05-29T09:13:49.328Z,29.66
2018-05-29T09:14:49.318Z,29.66
2018-05-29T09:15:49.321Z,29.59
2018-05-29T09:16:49.310Z,29.62
2018-05-29T09:17:49.297Z,29.59
2018-05-29T09:18:49.308Z,29.59
2018-05-29T09:19:49.305Z,29.65
2018-05-29T09:20:49.281Z,29.70
2018-05-29T09:21:49.270Z,29.74
2018-05-29T09:22:49.342Z,29.74
2018-05-29T09:23:49.257Z,29.80
2018-05-29T09:24:49.247Z,29.80
2018-05-29T09:25:49.246Z,29.87
2018-05-29T09:26:49.238Z,29.87
2018-05-29T09:27:49.231Z,29.73
2018-05-29T09:28:49.245Z,29.80
2018-05-29T09:29:49.296Z,29.80
2018-05-29T09:30:49.269Z,29.89
2018-05-29T09:31:49.206Z,29.92
2018-05-29T09:32:49.200Z,29.98
2018-05-29T09:33:49.206Z,29.96
2018-05-29T09:34:49.193Z,29.98
2018-05-29T09:35:49.180Z,30.03
2018-05-29T09:36:49.174Z,30.08
2018-05-29T09:37:49.169Z,30.17
2018-05-29T09:38:49.157Z,30.22
2018-05-29T09:39:49.153Z,30.11
2018-05-29T09:40:49.145Z,30.05
2018-05-29T09:41:49.153Z,30.13
2018-05-29T09:42:49.131Z,30.20
2018-05-29T09:43:49.126Z,30.30
2018-05-29T09:44:49.145Z,30.26
2018-05-29T09:45:49.174Z,30.36
2018-05-29T09:46:49.110Z,30.32
2018-05-29T09:47:49.097Z,30.28
2018-05-29T09:48:49.095Z,30.26
2018-05-29T09:49:49.088Z,30.24
2018-05-29T09:50:49.074Z,30.10
2018-05-29T09:51:49.077Z,30.08
2018-05-29T09:52:49.109Z,30.11
2018-05-29T09:53:49.082Z,30.33
2018-05-29T09:54:49.084Z,30.29
2018-05-29T09:55:49.059Z,30.29
2018-05-29T09:56:49.038Z,30.26
2018-05-29T09:57:49.049Z,30.22
2018-05-29T09:58:49.029Z,30.24
2018-05-29T09:59:49.037Z,30.24
2018-05-29T10:00:49.021Z,30.32
2018-05-29T10:01:49.014Z,30.10
2018-05-29T10:02:49.011Z,29.96
2018-05-29T10:03:49.003Z,29.91
2018-05-29T10:04:49.005Z,29.93
2018-05-29T10:05:48.996Z,29.66
2018-05-29T10:06:48.984Z,29.65
2018-05-29T10:07:48.974Z,29.63
2018-05-29T10:08:48.968Z,29.84
2018-05-29T10:09:48.974Z,29.95
2018-05-29T10:10:48.973Z,29.87
2018-05-29T10:11:48.950Z,29.96
2018-05-29T10:12:48.939Z,30.13
2018-05-29T10:13:48.951Z,30.18
2018-05-29T10:14:48.936Z,30.33
2018-05-29T10:15:48.922Z,30.22
2018-05-29T10:16:48.917Z,30.40
2018-05-29T10:17:48.909Z,30.39
2018-05-29T10:18:48.899Z,30.55
2018-05-29T10:19:48.893Z,30.53
2018-05-29T10:20:48.891Z,30.55
2018-05-29T10:21:48.898Z,30.55
2018-05-29T10:22:48.884Z,30.46
2018-05-29T10:23:48.877Z,30.64
2018-05-29T10:24:48.888Z,30.73
2018-05-29T10:25:48.865Z,30.85
2018-05-29T10:26:48.859Z,30.86
2018-05-29T10:27:48.853Z,30.93
2018-05-29T10:28:48.846Z,30.92
2018-05-29T10:29:48.831Z,30.92
2018-05-29T10:30:48.847Z,30.93
2018-05-29T10:31:48.832Z,31.02
2018-05-29T10:32:48.825Z,31.04
2018-05-29T10:33:48.825Z,31.19
2018-05-29T10:34:48.806Z,31.22
2018-05-29T10:35:48.805Z,31.15
2018-05-29T10:36:48.797Z,31.29
2018-05-29T10:37:48.789Z,31.30
2018-05-29T10:38:48.795Z,31.30
2018-05-29T10:39:48.777Z,31.32
2018-05-29T10:40:48.773Z,31.39
2018-05-29T10:41:48.769Z,31.41
2018-05-29T10:42:48.760Z,31.39
2018-05-29T10:43:48.755Z,31.42
2018-05-29T10:44:48.756Z,31.38
2018-05-29T10:45:48.760Z,31.56
2018-05-29T10:46:48.738Z,31.59
2018-05-29T10:47:48.745Z,31.56
2018-05-29T10:48:48.723Z,31.59
2018-05-29T10:49:48.724Z,31.41
2018-05-29T10:50:48.724Z,31.27
2018-05-29T10:51:48.713Z,31.29
2018-05-29T10:52:48.707Z,31.22
2018-05-29T10:53:48.700Z,31.32
2018-05-29T10:54:48.703Z,31.42
2018-05-29T10:55:48.688Z,31.45
2018-05-29T10:56:48.685Z,31.49
2018-05-29T10:57:48.682Z,31.60
2018-05-29T10:58:48.675Z,31.70
2018-05-29T10:59:48.670Z,31.79
2018-05-29T11:00:48.666Z,31.87
2018-05-29T11:01:48.658Z,31.78
2018-05-29T11:02:48.655Z,31.94
2018-05-29T11:03:48.659Z,31.84
2018-05-29T11:04:48.644Z,31.94
2018-05-29T11:05:48.641Z,31.87
2018-05-29T11:06:48.681Z,31.87
2018-05-29T11:07:48.629Z,31.97
2018-05-29T11:08:48.626Z,31.98
2018-05-29T11:09:48.615Z,32.08
2018-05-29T11:10:48.614Z,32.21
2018-05-29T11:11:48.609Z,32.28
2018-05-29T11:12:48.603Z,32.32
2018-05-29T11:13:48.603Z,32.32
2018-05-29T11:14:48.602Z,32.17
2018-05-29T11:15:48.594Z,32.24
2018-05-29T11:16:48.581Z,32.05
2018-05-29T11:17:48.583Z,31.99
2018-05-29T11:18:48.573Z,31.98
2018-05-29T11:19:48.572Z,31.99
2018-05-29T11:20:48.569Z,32.16
2018-05-29T11:21:48.559Z,32.28
2018-05-29T11:22:48.561Z,32.35
2018-05-29T11:23:48.546Z,32.46
2018-05-29T11:24:48.566Z,32.55
2018-05-29T11:25:48.544Z,32.61
2018-05-29T11:26:48.540Z,32.61
2018-05-29T11:27:48.543Z,32.65
2018-05-29T11:28:48.523Z,32.55
2018-05-29T11:29:48.550Z,32.75
2018-05-29T11:30:48.518Z,32.88
2018-05-29T11:31:48.513Z,32.82
2018-05-29T11:32:48.510Z,32.85
2018-05-29T11:33:48.507Z,32.88
2018-05-29T11:34:48.546Z,32.75
2018-05-29T11:35:48.498Z,32.65
2018-05-29T11:36:48.513Z,32.76
2018-05-29T11:37:48.489Z,32.55
2018-05-29T11:38:48.501Z,32.58
2018-05-29T11:39:48.480Z,32.64
2018-05-29T11:40:48.486Z,32.57
2018-05-29T11:41:48.478Z,32.80
2018-05-29T11:42:48.480Z,32.99
2018-05-29T11:43:48.472Z,32.88
2018-05-29T11:44:48.469Z,32.85
2018-05-29T11:45:48.458Z,32.68
2018-05-29T11:46:48.460Z,32.63
2018-05-29T11:47:48.455Z,32.36
2018-05-29T11:48:48.468Z,32.13
2018-05-29T11:49:48.461Z,31.98
2018-05-29T11:50:48.454Z,31.99
2018-05-29T11:51:48.438Z,31.84
2018-05-29T11:52:48.442Z,31.75
2018-05-29T11:53:48.434Z,31.81
2018-05-29T11:54:48.431Z,31.87
2018-05-29T11:55:48.427Z,32.08
2018-05-29T11:56:48.420Z,32.26
2018-05-29T11:57:48.420Z,32.35
2018-05-29T11:58:48.426Z,32.50
2018-05-29T11:59:48.403Z,32.58
2018-05-29T12:00:48.406Z,32.64
2018-05-29T12:01:48.438Z,32.50
2018-05-29T12:02:48.400Z,32.72
2018-05-29T12:03:48.400Z,32.80
2018-05-29T12:04:48.402Z,32.85
2018-05-29T12:05:48.406Z,32.88
2018-05-29T12:06:48.377Z,32.88
2018-05-29T12:07:48.409Z,32.95
2018-05-29T12:08:48.389Z,33.01
2018-05-29T12:09:48.382Z,33.10
2018-05-29T12:10:48.376Z,32.98
2018-05-29T12:11:48.364Z,32.97
2018-05-29T12:12:48.367Z,32.83
2018-05-29T12:13:48.357Z,32.77
2018-05-29T12:14:48.352Z,32.60
2018-05-29T12:15:48.354Z,32.57
2018-05-29T12:16:48.367Z,32.36
2018-05-29T12:17:48.362Z,32.20
2018-05-29T12:18:48.343Z,32.24
2018-05-29T12:19:48.340Z,32.27
2018-05-29T12:20:48.329Z,32.31
2018-05-29T12:21:48.333Z,32.41
2018-05-29T12:22:48.330Z,32.36
2018-05-29T12:23:48.327Z,32.08
2018-05-29T12:24:48.338Z,32.01
2018-05-29T12:25:48.310Z,31.95
2018-05-29T12:26:48.321Z,32.05
2018-05-29T12:27:48.308Z,32.13
2018-05-29T12:28:48.304Z,32.28
2018-05-29T12:29:48.326Z,32.41
2018-05-29T12:30:48.292Z,32.33
2018-05-29T12:31:48.294Z,32.17
2018-05-29T12:32:48.309Z,32.28
2018-05-29T12:33:48.308Z,32.32
2018-05-29T12:34:48.296Z,32.35
2018-05-29T12:35:48.290Z,32.42
2018-05-29T12:36:48.283Z,32.57
2018-05-29T12:37:48.273Z,32.57
2018-05-29T12:38:48.264Z,32.50
2018-05-29T12:39:48.269Z,32.60
2018-05-29T12:40:48.264Z,32.77
2018-05-29T12:41:48.261Z,32.83
2018-05-29T12:42:48.261Z,32.95
2018-05-29T12:43:48.256Z,33.01
2018-05-29T12:44:48.255Z,33.09
2018-05-29T12:45:48.244Z,33.10
2018-05-29T12:46:48.239Z,33.14
2018-05-29T12:47:48.242Z,33.09
2018-05-29T12:48:48.239Z,33.24
2018-05-29T12:49:48.230Z,33.35
2018-05-29T12:50:48.229Z,33.73
2018-05-29T12:51:48.227Z,33.98
2018-05-29T12:52:48.227Z,34.32
2018-05-29T12:53:48.222Z,34.60